createdAt,value
2019-05-14T00:01:22.309Z,0.90
2019-05-14T00:04:28.703Z,0.98
2019-05-14T00:07:34.296Z,0.82
2019-05-14T00:10:42.629Z,0.88
2019-05-14T00:13:51.858Z,0.72
2019-05-14T00:16:58.728Z,1.00
2019-05-14T00:20:09.819Z,0.70
2019-05-14T00:23:12.996Z,0.90
2019-05-14T00:26:21.430Z,0.70
2019-05-14T00:29:28.549Z,0.85
2019-05-14T00:32:34.033Z,0.88
2019-05-14T00:35:41.896Z,0.70
2019-05-14T00:38:51.390Z,0.90
2019-05-14T00:42:01.788Z,0.80
2019-05-14T00:45:08.787Z,0.72
2019-05-14T00:48:15.748Z,0.78
2019-05-14T00:51:21.594Z,0.65
2019-05-14T00:54:28.377Z,0.90
2019-05-14T00:57:36.690Z,0.80
2019-05-14T01:00:44.377Z,0.70
2019-05-14T01:03:52.112Z,0.90
2019-05-14T01:07:01.551Z,0.80
2019-05-14T01:10:07.176Z,0.60
2019-05-14T01:13:12.593Z,0.75
2019-05-14T01:16:18.040Z,0.60
2019-05-14T01:19:23.644Z,0.60
2019-05-14T01:22:31.642Z,0.90
2019-05-14T01:25:42.052Z,0.70
2019-05-14T01:28:51.184Z,0.80
2019-05-14T01:31:57.020Z,0.75
2019-05-14T01:35:02.504Z,0.93
2019-05-14T01:38:07.960Z,0.80
2019-05-14T01:41:13.425Z,0.70
2019-05-14T01:44:21.216Z,0.70
2019-05-14T01:47:27.122Z,0.78
2019-05-14T01:50:34.080Z,0.78
2019-05-14T01:53:41.643Z,0.70
2019-05-14T01:56:47.436Z,0.90
2019-05-14T01:59:52.836Z,0.55
2019-05-14T02:03:01.780Z,0.70
2019-05-14T02:06:07.228Z,0.60
2019-05-14T02:09:14.444Z,0.70
2019-05-14T02:12:22.167Z,0.80
2019-05-14T02:15:37.205Z,0.62
2019-05-14T02:18:34.903Z,0.70
2019-05-14T02:21:42.665Z,0.90
2019-05-14T02:24:48.213Z,0.50
2019-05-14T02:27:54.738Z,0.90
2019-05-14T02:31:03.918Z,0.75
2019-05-14T02:34:10.123Z,0.72
2019-05-14T02:37:19.258Z,0.70
2019-05-14T02:40:25.024Z,0.70
2019-05-14T02:43:31.542Z,0.98
2019-05-14T02:46:40.047Z,0.70
2019-05-14T02:49:44.193Z,0.88
2019-05-14T02:52:49.973Z,0.70
2019-05-14T02:55:55.559Z,0.80
2019-05-14T02:59:05.690Z,0.60
2019-05-14T03:02:10.796Z,0.60
2019-05-14T03:05:19.057Z,0.70
2019-05-14T03:08:24.062Z,0.60
2019-05-14T03:11:30.676Z,0.82
2019-05-14T03:14:39.264Z,0.68
2019-05-14T03:17:44.257Z,0.70
2019-05-14T03:20:50.434Z,0.70
2019-05-14T03:23:56.060Z,0.80
2019-05-14T03:27:01.495Z,0.70
2019-05-14T03:30:12.541Z,0.60
2019-05-14T03:33:15.470Z,0.60
2019-05-14T03:36:26.692Z,0.50
2019-05-14T03:39:29.470Z,0.62
2019-05-14T03:42:39.640Z,0.70
2019-05-14T03:45:43.565Z,0.70
2019-05-14T03:48:49.429Z,0.60
2019-05-14T03:51:56.173Z,0.70
2019-05-14T03:55:04.727Z,0.60
2019-05-14T03:58:10.140Z,0.70
2019-05-14T04:01:19.926Z,0.62
2019-05-14T04:04:23.942Z,0.70
2019-05-14T04:07:31.018Z,0.60
2019-05-14T04:10:39.310Z,0.75
2019-05-14T04:13:49.619Z,0.70
2019-05-14T04:17:05.361Z,0.70
2019-05-14T04:20:09.144Z,0.85
2019-05-14T04:23:15.678Z,1.00
2019-05-14T04:26:25.296Z,0.80
2019-05-14T04:29:31.600Z,1.10
2019-05-14T04:32:39.472Z,0.65
2019-05-14T04:35:48.940Z,0.95
2019-05-14T04:38:55.145Z,0.70
2019-05-14T04:42:01.327Z,0.75
2019-05-14T04:45:10.534Z,0.60
2019-05-14T04:48:31.384Z,0.72
2019-05-14T04:51:22.705Z,0.60
2019-05-14T04:54:30.310Z,0.60
2019-05-14T04:57:35.309Z,0.40
2019-05-14T05:00:43.687Z,0.65
2019-05-14T05:03:50.285Z,0.68
2019-05-14T05:06:59.383Z,0.50
2019-05-14T05:10:10.181Z,0.60
2019-05-14T05:13:18.474Z,0.57
2019-05-14T05:16:24.861Z,0.68
2019-05-14T05:19:31.305Z,0.85
2019-05-14T05:22:39.173Z,0.60
2019-05-14T05:25:43.801Z,0.60
2019-05-14T05:29:02.590Z,0.50
2019-05-14T05:31:59.416Z,0.50
2019-05-14T05:35:06.184Z,0.60
2019-05-14T05:38:11.623Z,0.68
2019-05-14T05:41:19.185Z,0.70
2019-05-14T05:44:28.532Z,0.68
2019-05-14T05:47:33.092Z,0.53
2019-05-14T05:50:38.991Z,0.60
2019-05-14T05:53:44.506Z,0.72
2019-05-14T05:56:51.044Z,0.72
2019-05-14T05:59:59.091Z,0.47
2019-05-14T06:03:10.178Z,0.70
2019-05-14T06:06:14.440Z,0.50
2019-05-14T06:09:19.908Z,0.50
2019-05-14T06:12:25.320Z,0.70
2019-05-14T06:15:44.732Z,0.60
2019-05-14T06:18:39.921Z,0.60
2019-05-14T06:21:48.723Z,0.50
2019-05-14T06:24:54.249Z,0.60
2019-05-14T06:27:59.812Z,0.50
2019-05-14T06:31:09.601Z,0.70
2019-05-14T06:34:13.433Z,0.50
2019-05-14T06:37:19.379Z,0.82
2019-05-14T06:40:28.580Z,1.00
2019-05-14T06:43:35.033Z,0.70
2019-05-14T06:46:40.440Z,1.05
2019-05-14T06:49:48.854Z,0.93
2019-05-14T06:52:58.017Z,0.70
2019-05-14T06:56:04.599Z,0.88
2019-05-14T06:59:12.491Z,0.70
2019-05-14T07:02:19.344Z,0.70
2019-05-14T07:05:24.929Z,0.75
2019-05-14T07:08:30.332Z,0.80
2019-05-14T07:11:38.885Z,0.78
2019-05-14T07:14:43.936Z,0.80
2019-05-14T07:17:51.338Z,1.92
2019-05-14T07:20:59.824Z,1.80
2019-05-14T07:24:08.701Z,1.47
2019-05-14T07:27:14.401Z,1.37
2019-05-14T07:30:21.010Z,1.47
2019-05-14T07:33:29.040Z,1.87
2019-05-14T07:36:33.517Z,1.92
2019-05-14T07:39:38.953Z,2.00
2019-05-14T07:42:44.429Z,1.85
2019-05-14T07:45:51.730Z,1.62
2019-05-14T07:49:05.440Z,1.70
2019-05-14T07:52:04.360Z,1.70
2019-05-14T07:55:11.115Z,1.60
2019-05-14T07:58:19.699Z,1.90
2019-05-14T08:01:25.480Z,2.00
2019-05-14T08:04:30.937Z,1.67
2019-05-14T08:07:38.843Z,1.80
2019-05-14T08:10:48.478Z,1.40
2019-05-14T08:13:54.521Z,1.60
2019-05-14T08:16:59.937Z,1.52
2019-05-14T08:20:08.969Z,1.50
2019-05-14T08:23:18.267Z,1.47
2019-05-14T08:26:23.024Z,1.40
2019-05-14T08:29:28.740Z,1.30
2019-05-14T08:32:35.323Z,1.20
2019-05-14T08:35:42.568Z,1.35
2019-05-14T08:38:50.348Z,1.25
2019-05-14T08:42:03.600Z,1.55
2019-05-14T08:45:12.806Z,1.50
2019-05-14T08:48:14.209Z,1.70
2019-05-14T08:51:21.093Z,1.57
2019-05-14T08:54:28.370Z,1.20
2019-05-14T08:57:33.714Z,1.72
2019-05-14T09:00:39.428Z,1.32
2019-05-14T09:03:48.856Z,1.07
2019-05-14T09:06:53.124Z,1.35
2019-05-14T09:10:00.050Z,1.30
2019-05-14T09:13:05.956Z,1.35
2019-05-14T09:16:13.264Z,1.65
2019-05-14T09:19:19.396Z,1.02
2019-05-14T09:22:28.903Z,0.93
2019-05-14T09:25:34.742Z,1.20
2019-05-14T09:28:40.213Z,0.90
2019-05-14T09:31:49.531Z,1.20
2019-05-14T09:34:58.791Z,1.52
2019-05-14T09:38:04.281Z,1.07
2019-05-14T09:41:15.009Z,1.00
2019-05-14T09:44:18.680Z,1.25
2019-05-14T09:47:24.244Z,1.02
2019-05-14T09:50:29.668Z,0.80
2019-05-14T09:53:38.164Z,1.20
2019-05-14T09:56:44.728Z,0.90
2019-05-14T09:59:51.485Z,0.95
2019-05-14T10:02:59.495Z,1.10
2019-05-14T10:06:09.775Z,1.05
2019-05-14T10:09:14.544Z,0.90
2019-05-14T10:12:21.569Z,1.00
2019-05-14T10:15:28.645Z,1.05
2019-05-14T10:18:34.270Z,1.00
2019-05-14T10:21:40.794Z,0.90
2019-05-14T10:24:46.285Z,0.80
2019-05-14T10:27:52.804Z,0.80
2019-05-14T10:31:00.640Z,1.20
2019-05-14T10:34:08.342Z,0.80
2019-05-14T10:37:13.501Z,0.90
2019-05-14T10:40:20.745Z,0.90
2019-05-14T10:43:28.884Z,1.10
2019-05-14T10:46:38.250Z,0.60
2019-05-14T10:49:43.026Z,1.00
2019-05-14T10:52:49.033Z,0.85
2019-05-14T10:55:58.253Z,0.90
2019-05-14T10:59:03.363Z,0.80
2019-05-14T11:02:11.981Z,1.10
2019-05-14T11:05:18.544Z,0.80
2019-05-14T11:08:23.049Z,1.12
2019-05-14T11:11:29.100Z,0.82
2019-05-14T11:14:34.662Z,0.82
2019-05-14T11:17:41.874Z,0.80
2019-05-14T11:20:51.367Z,0.82
2019-05-14T11:23:55.494Z,0.75
2019-05-14T11:27:01.980Z,0.80
2019-05-14T11:30:09.368Z,1.00
2019-05-14T11:33:14.800Z,1.00
2019-05-14T11:36:22.013Z,0.75
2019-05-14T11:39:28.891Z,0.80
2019-05-14T11:42:34.812Z,0.80
2019-05-14T11:45:40.307Z,1.00
2019-05-14T11:48:49.066Z,0.80
2019-05-14T11:52:03.767Z,0.93
2019-05-14T11:55:00.949Z,0.82
2019-05-14T11:58:08.607Z,1.12
2019-05-14T12:01:14.661Z,0.80
2019-05-14T12:04:20.169Z,0.90
2019-05-14T12:07:28.086Z,0.80
2019-05-14T12:10:33.584Z,0.68
2019-05-14T12:13:40.097Z,0.72
2019-05-14T12:16:49.432Z,1.02
2019-05-14T12:19:54.394Z,0.80
2019-05-14T12:22:59.904Z,0.90
2019-05-14T12:26:05.584Z,0.68
2019-05-14T12:29:12.098Z,0.80
2019-05-14T12:32:18.935Z,0.70
2019-05-14T12:35:24.575Z,0.85
2019-05-14T12:38:30.101Z,1.00
2019-05-14T12:41:35.525Z,0.60
2019-05-14T12:44:41.086Z,0.60
2019-05-14T12:47:50.082Z,0.90
2019-05-14T12:50:55.140Z,0.60
2019-05-14T12:54:02.410Z,0.78
2019-05-14T12:57:08.089Z,0.72
2019-05-14T13:00:13.890Z,0.70
2019-05-14T13:03:20.647Z,0.88
2019-05-14T13:06:29.367Z,0.60
2019-05-14T13:09:35.157Z,0.85
2019-05-14T13:12:40.621Z,0.70
2019-05-14T13:15:48.360Z,0.80
2019-05-14T13:18:53.209Z,0.62
2019-05-14T13:22:09.974Z,0.60
2019-05-14T13:25:09.787Z,0.60
2019-05-14T13:28:15.988Z,0.72
2019-05-14T13:31:21.422Z,0.70
2019-05-14T13:34:29.050Z,0.80
2019-05-14T13:37:34.941Z,0.88
2019-05-14T13:40:40.481Z,1.30
2019-05-14T13:43:46.005Z,0.80
2019-05-14T13:46:52.576Z,0.90
2019-05-14T13:49:59.262Z,0.70
2019-05-14T13:53:14.329Z,0.60
2019-05-14T13:56:19.792Z,0.72
2019-05-14T13:59:25.222Z,0.90
2019-05-14T14:02:33.361Z,0.80
2019-05-14T14:05:42.329Z,1.05
2019-05-14T14:08:49.445Z,0.68
2019-05-14T14:11:55.024Z,0.68
2019-05-14T14:15:00.445Z,0.70
2019-05-14T14:18:06.113Z,0.62
2019-05-14T14:21:13.450Z,0.80
2019-05-14T14:24:19.718Z,0.75
2019-05-14T14:27:25.307Z,0.70
2019-05-14T14:30:30.801Z,0.60
2019-05-14T14:33:38.927Z,0.60
2019-05-14T14:36:43.305Z,0.60
2019-05-14T14:39:49.777Z,0.75
2019-05-14T14:42:59.416Z,0.88
2019-05-14T14:46:07.618Z,0.82
2019-05-14T14:49:11.414Z,0.70
2019-05-14T14:52:20.003Z,0.72
2019-05-14T14:55:25.094Z,0.82
2019-05-14T14:58:30.640Z,0.70
2019-05-14T15:01:39.886Z,0.70
2019-05-14T15:04:43.637Z,0.70
2019-05-14T15:07:50.273Z,0.65
2019-05-14T15:10:55.773Z,0.80
2019-05-14T15:14:02.309Z,0.80
2019-05-14T15:17:09.616Z,0.88
2019-05-14T15:20:14.903Z,0.72
2019-05-14T15:23:20.297Z,0.80
2019-05-14T15:26:28.937Z,0.80
2019-05-14T15:29:34.637Z,0.70
2019-05-14T15:32:40.125Z,0.55
2019-05-14T15:35:45.820Z,0.62
2019-05-14T15:38:52.152Z,0.68
2019-05-14T15:42:05.184Z,0.60
2019-05-14T15:45:09.175Z,0.90
2019-05-14T15:48:14.613Z,0.80
2019-05-14T15:51:20.197Z,0.60
2019-05-14T15:54:39.251Z,0.70
2019-05-14T15:57:33.812Z,0.80
2019-05-14T16:00:39.353Z,0.80
2019-05-14T16:03:48.247Z,0.65
2019-05-14T16:06:58.440Z,0.50
2019-05-14T16:10:04.657Z,0.70
2019-05-14T16:13:11.285Z,0.78
2019-05-14T16:16:19.140Z,1.00
2019-05-14T16:19:23.989Z,0.78
2019-05-14T16:22:30.505Z,0.50
2019-05-14T16:25:37.899Z,0.82
2019-05-14T16:28:44.118Z,0.70
2019-05-14T16:31:50.634Z,0.70
2019-05-14T16:34:58.083Z,0.70
2019-05-14T16:38:03.670Z,0.80
2019-05-14T16:41:10.277Z,0.60
2019-05-14T16:44:18.896Z,0.78
2019-05-14T16:47:28.599Z,1.00
2019-05-14T16:50:35.265Z,0.70
2019-05-14T16:53:42.536Z,0.75
2019-05-14T16:56:49.793Z,0.70
2019-05-14T16:59:58.529Z,0.80
2019-05-14T17:03:04.218Z,0.62
2019-05-14T17:06:09.688Z,0.70
2019-05-14T17:09:18.624Z,0.70
2019-05-14T17:12:23.333Z,0.80
2019-05-14T17:15:28.955Z,0.95
2019-05-14T17:18:38.252Z,0.70
2019-05-14T17:21:43.780Z,0.78
2019-05-14T17:24:49.592Z,0.70
2019-05-14T17:27:55.195Z,0.82
2019-05-14T17:31:03.265Z,0.70
2019-05-14T17:34:08.896Z,0.80
2019-05-14T17:37:15.462Z,0.95
2019-05-14T17:40:20.861Z,0.70
2019-05-14T17:43:28.389Z,0.60
2019-05-14T17:46:34.073Z,0.90
2019-05-14T17:49:39.567Z,0.90
2019-05-14T17:52:55.353Z,0.80
2019-05-14T17:55:55.280Z,0.70
2019-05-14T17:59:01.920Z,0.70
2019-05-14T18:02:08.950Z,0.62
2019-05-14T18:05:18.623Z,0.80
2019-05-14T18:08:22.929Z,0.78
2019-05-14T18:11:28.556Z,0.70
2019-05-14T18:14:35.120Z,0.80
2019-05-14T18:17:40.700Z,0.60
2019-05-14T18:20:49.069Z,0.68
2019-05-14T18:23:58.618Z,0.70
2019-05-14T18:27:08.171Z,0.80
2019-05-14T18:30:14.469Z,0.70
2019-05-14T18:33:19.908Z,0.70
2019-05-14T18:36:28.222Z,0.90
2019-05-14T18:39:33.649Z,0.80
2019-05-14T18:42:39.397Z,0.70
2019-05-14T18:45:47.968Z,0.70
2019-05-14T18:48:53.130Z,0.80
2019-05-14T18:51:59.581Z,0.90
2019-05-14T18:55:05.404Z,0.80
2019-05-14T18:58:11.061Z,0.80
2019-05-14T19:01:19.666Z,0.70
2019-05-14T19:04:24.118Z,0.72
2019-05-14T19:07:29.625Z,0.80
2019-05-14T19:10:36.524Z,0.72
2019-05-14T19:13:41.997Z,0.80
2019-05-14T19:16:49.094Z,0.70
2019-05-14T19:19:55.729Z,0.82
2019-05-14T19:23:01.195Z,0.80
2019-05-14T19:26:09.565Z,0.80
2019-05-14T19:29:18.529Z,0.80
2019-05-14T19:32:25.168Z,0.90
2019-05-14T19:35:31.708Z,0.70
2019-05-14T19:38:38.850Z,0.90
2019-05-14T19:41:44.292Z,0.65
2019-05-14T19:44:49.819Z,0.80
2019-05-14T19:47:58.830Z,0.70
2019-05-14T19:51:04.228Z,1.00
2019-05-14T19:54:09.672Z,0.80
2019-05-14T19:57:18.487Z,1.00
2019-05-14T20:00:28.848Z,0.70
2019-05-14T20:03:37.241Z,0.82
2019-05-14T20:06:43.895Z,0.95
2019-05-14T20:09:50.484Z,0.62
2019-05-14T20:12:59.100Z,0.75
2019-05-14T20:16:08.482Z,0.90
2019-05-14T20:19:13.280Z,0.70
2019-05-14T20:22:19.851Z,0.70
2019-05-14T20:25:28.039Z,0.80
2019-05-14T20:29:25.126Z,0.70
2019-05-14T20:32:33.975Z,0.90
2019-05-14T20:35:42.174Z,0.78
2019-05-14T20:38:50.230Z,0.80
2019-05-14T20:41:58.422Z,0.60
2019-05-14T20:45:09.709Z,0.88
2019-05-14T20:48:19.066Z,0.70
2019-05-14T20:51:27.499Z,0.70
2019-05-14T20:54:32.796Z,0.68
2019-05-14T20:57:39.458Z,0.80
2019-05-14T21:00:45.561Z,0.80
2019-05-14T21:03:52.186Z,0.80
2019-05-14T21:06:58.850Z,0.68
2019-05-14T21:10:05.505Z,0.70
2019-05-14T21:13:12.747Z,0.60
2019-05-14T21:16:19.033Z,0.93
2019-05-14T21:19:25.410Z,0.70
2019-05-14T21:22:33.630Z,0.53
2019-05-14T21:25:41.646Z,0.90
2019-05-14T21:28:48.762Z,0.60
2019-05-14T21:31:55.959Z,0.70
2019-05-14T21:35:03.702Z,0.85
2019-05-14T21:38:09.890Z,1.00
2019-05-14T21:41:20.173Z,0.62
2019-05-14T21:44:24.307Z,0.98
2019-05-14T21:47:30.807Z,0.90
2019-05-14T21:50:38.686Z,0.78
2019-05-14T21:53:48.216Z,0.70
2019-05-14T21:56:54.422Z,0.80
2019-05-14T22:00:00.630Z,0.60
2019-05-14T22:03:10.298Z,0.95
2019-05-14T22:06:18.272Z,0.60
2019-05-14T22:09:24.135Z,0.70
2019-05-14T22:12:30.454Z,0.62
2019-05-14T22:15:38.887Z,0.65
2019-05-14T22:18:44.862Z,0.85
2019-05-14T22:21:55.051Z,0.70
2019-05-14T22:25:01.479Z,0.80
2019-05-14T22:28:14.920Z,0.60
2019-05-14T22:31:19.410Z,0.88
2019-05-14T22:34:28.009Z,0.68
2019-05-14T22:37:34.094Z,1.00
2019-05-14T22:40:40.486Z,0.68
2019-05-14T22:43:48.838Z,0.80
2019-05-14T22:47:13.753Z,0.70
2019-05-14T22:50:20.213Z,0.80
2019-05-14T22:53:27.874Z,0.93
2019-05-14T22:56:34.611Z,0.90
2019-05-14T22:59:40.915Z,0.80
2019-05-14T23:07:29.553Z,0.75
2019-05-14T23:10:38.639Z,0.70
2019-05-14T23:13:58.242Z,3.55
2019-05-14T23:17:04.355Z,0.98
2019-05-14T23:20:10.614Z,1.10
2019-05-14T23:23:18.484Z,0.95
2019-05-14T23:26:24.761Z,1.00
2019-05-14T23:34:13.380Z,0.90
2019-05-14T23:37:19.425Z,0.85
2019-05-14T23:40:25.451Z,0.80
2019-05-14T23:43:32.788Z,0.98
2019-05-14T23:46:38.736Z,0.80
2019-05-14T23:49:44.845Z,0.90
2019-05-14T23:52:51.947Z,0.88
2019-05-14T23:55:57.985Z,1.00
2019-05-14T23:59:03.668Z,0.70
